Time;durP1;ratioP1;P1;durP2;ratioP2;P2;SDS_P1;SDS_P2;PMS_P1;PMS_P2;Temp;Humidity;BMP_temperature;BMP_pressure;BME280_temperature;BME280_humidity;BME280_pressure;Samples;Min_cycle;Max_cycle;Signal;HPM_P1;HPM_P2
2023/01/16 00:00:55;;;;;;;5.20;0.70;;;4.60;1.00;;;;;;5057267;28;20772;-53
2023/01/16 00:03:20;;;;;;;4.22;0.52;;;4.90;1.00;;;;;;5049054;28;20901;-53
2023/01/16 00:05:46;;;;;;;4.45;0.60;;;4.20;1.00;;;;;;5049309;28;20382;-53
2023/01/16 00:08:12;;;;;;;4.70;0.80;;;4.80;1.00;;;;;;5048680;28;21007;-53
2023/01/16 00:10:38;;;;;;;4.50;0.70;;;3.40;1.00;;;;;;5048959;28;20421;-52
2023/01/16 00:13:04;;;;;;;5.20;0.82;;;4.70;1.00;;;;;;5048318;28;20864;-53
2023/01/16 00:15:30;;;;;;;6.70;0.77;;;3.60;99.90;;;;;;5048790;28;20488;-53
2023/01/16 00:17:55;;;;;;;4.80;0.70;;;3.70;99.90;;;;;;5048095;28;20417;-52
2023/01/16 00:20:21;;;;;;;6.95;0.90;;;3.70;99.90;;;;;;5049294;28;20817;-53
2023/01/16 00:22:47;;;;;;;4.10;0.45;;;3.70;99.90;;;;;;5048513;28;20536;-53
2023/01/16 00:25:13;;;;;;;5.70;0.70;;;3.70;99.90;;;;;;5048335;28;20674;-53
2023/01/16 00:27:39;;;;;;;6.10;0.70;;;3.70;99.90;;;;;;5048188;28;20559;-53
2023/01/16 00:30:06;;;;;;;4.70;0.80;;;3.80;99.90;;;;;;5047848;28;20575;-53
2023/01/16 00:32:31;;;;;;;5.00;0.80;;;3.70;99.90;;;;;;5048918;28;20393;-53
2023/01/16 00:34:57;;;;;;;4.25;0.45;;;3.80;99.90;;;;;;5048340;28;20385;-53
2023/01/16 00:37:23;;;;;;;5.20;0.63;;;4.80;99.90;;;;;;5048612;28;20469;-53
2023/01/16 00:39:48;;;;;;;4.80;0.87;;;3.90;99.90;;;;;;5048467;28;20381;-53
2023/01/16 00:42:14;;;;;;;5.60;0.90;;;3.90;99.90;;;;;;5047847;28;20458;-53
2023/01/16 00:44:40;;;;;;;4.72;0.60;;;5.20;99.90;;;;;;5048551;28;20421;-53
2023/01/16 00:47:06;;;;;;;5.25;0.60;;;4.00;99.90;;;;;;5048129;28;20731;-53
2023/01/16 00:49:32;;;;;;;5.93;0.60;;;3.90;99.90;;;;;;5048539;28;20782;-53
2023/01/16 00:51:58;;;;;;;4.72;0.63;;;3.90;99.90;;;;;;5047781;28;20525;-53
2023/01/16 00:54:23;;;;;;;7.70;0.70;;;3.80;99.90;;;;;;5048319;28;20439;-53
2023/01/16 00:56:49;;;;;;;5.70;0.50;;;5.40;99.90;;;;;;5048483;28;20382;-53
2023/01/16 00:59:15;;;;;;;5.00;0.80;;;5.10;99.90;;;;;;5047607;28;20393;-53
2023/01/16 01:01:40;;;;;;;4.90;0.60;;;3.50;99.90;;;;;;5048131;28;20893;-53
2023/01/16 01:04:06;;;;;;;5.55;0.70;;;3.70;99.90;;;;;;5047575;28;20496;-53
2023/01/16 01:06:32;;;;;;;4.32;0.55;;;3.60;99.90;;;;;;5048102;28;20378;-53
2023/01/16 01:08:58;;;;;;;5.22;0.50;;;3.60;99.90;;;;;;5047570;28;20373;-53
2023/01/16 01:11:23;;;;;;;5.17;0.50;;;4.60;99.90;;;;;;5048534;28;20412;-53
2023/01/16 01:13:49;;;;;;;4.70;0.68;;;3.60;99.90;;;;;;5048075;28;20393;-53
2023/01/16 01:16:15;;;;;;;5.22;0.40;;;3.60;99.90;;;;;;5047512;28;20838;-53
2023/01/16 01:18:41;;;;;;;4.00;0.50;;;3.60;99.90;;;;;;5047984;28;20385;-53
2023/01/16 01:21:07;;;;;;;5.80;0.60;;;3.60;99.90;;;;;;5047170;28;20417;-53
2023/01/16 01:23:33;;;;;;;5.00;1.00;;;4.10;99.90;;;;;;5059517;28;20442;-53
2023/01/16 01:26:04;;;;;;;4.80;0.60;;;4.60;99.90;;;;;;5067412;28;20387;-53
2023/01/16 01:28:30;;;;;;;3.88;0.40;;;3.50;99.90;;;;;;5068259;28;20433;-52
2023/01/16 01:30:55;;;;;;;4.60;0.60;;;5.40;99.90;;;;;;5067471;28;20380;-53
2023/01/16 01:33:21;;;;;;;4.00;0.50;;;3.40;99.90;;;;;;5068395;28;20783;-53
2023/01/16 01:35:46;;;;;;;5.20;0.90;;;3.40;99.90;;;;;;5067944;28;20454;-52
2023/01/16 01:38:12;;;;;;;3.80;0.50;;;3.40;99.90;;;;;;5067480;28;20380;-52
2023/01/16 01:40:38;;;;;;;4.80;0.50;;;3.40;99.90;;;;;;5071385;28;20418;-52
2023/01/16 01:43:12;;;;;;;4.40;0.57;;;3.50;99.90;;;;;;5071277;28;20418;-52
2023/01/16 01:45:38;;;;;;;4.20;0.47;;;3.50;99.90;;;;;;5072154;28;20380;-53
2023/01/16 01:48:13;;;;;;;5.13;0.55;;;3.40;99.90;;;;;;5071587;28;20399;-53
2023/01/16 01:50:50;;;;;;;5.25;0.90;;;3.40;99.90;;;;;;5072028;28;20407;-53
2023/01/16 01:53:23;;;;;;;4.55;0.55;;;3.50;99.90;;;;;;5071029;28;20407;-52
2023/01/16 01:55:50;;;;;;;5.97;0.50;;;3.50;99.90;;;;;;5071762;28;20394;-53
2023/01/16 01:58:21;;;;;;;4.55;1.00;;;4.50;99.90;;;;;;5070745;28;20533;-52
2023/01/16 02:00:50;;;;;;;3.90;0.40;;;3.50;99.90;;;;;;5071466;28;20384;-52
2023/01/16 02:03:25;;;;;;;4.80;0.85;;;3.70;99.90;;;;;;5070705;28;20913;-52
2023/01/16 02:05:54;;;;;;;4.90;0.50;;;5.30;99.90;;;;;;5071684;28;20371;-53
2023/01/16 02:08:22;;;;;;;4.75;0.50;;;3.60;99.90;;;;;;5071535;28;20424;-52
2023/01/16 02:11:28;;;;;;;5.88;0.60;;;4.40;99.90;;;;;;5071562;28;20540;-52
2023/01/16 02:14:04;;;;;;;3.90;0.40;;;3.50;99.90;;;;;;5064392;28;20714;-53
2023/01/16 02:19:53;;;;;;;6.40;0.60;;;3.60;99.90;;;;;;5070632;28;20608;-52
2023/01/16 02:22:39;;;;;;;7.35;0.85;;;3.60;99.90;;;;;;5070830;28;20442;-52
2023/01/16 02:25:33;;;;;;;4.60;0.50;;;5.20;99.90;;;;;;5062920;28;20469;-54
2023/01/16 02:28:17;;;;;;;3.90;0.40;;;3.60;99.90;;;;;;5070246;28;20395;-54
2023/01/16 02:31:09;;;;;;;6.68;0.60;;;3.60;99.90;;;;;;5071364;28;20597;-53
2023/01/16 02:34:06;;;;;;;4.90;0.40;;;3.50;99.90;;;;;;5071554;28;20518;-53
2023/01/16 02:36:42;;;;;;;3.90;0.40;;;3.60;99.90;;;;;;5071002;28;20376;-53
2023/01/16 02:39:20;;;;;;;4.10;0.60;;;4.80;99.90;;;;;;5070582;28;20459;-53
2023/01/16 02:41:45;;;;;;;3.80;0.50;;;4.90;99.90;;;;;;5070862;28;20955;-53
2023/01/16 02:44:40;;;;;;;4.67;0.50;;;3.50;99.90;;;;;;5069842;28;20415;-53
2023/01/16 02:47:17;;;;;;;5.40;0.80;;;4.20;99.90;;;;;;5070048;28;20433;-52
2023/01/16 02:50:00;;;;;;;4.60;0.80;;;3.90;99.90;;;;;;5070689;28;20384;-52
2023/01/16 02:52:51;;;;;;;6.00;0.50;;;3.60;99.90;;;;;;5069756;28;20391;-52
2023/01/16 02:55:28;;;;;;;4.80;0.60;;;3.50;99.90;;;;;;5069667;28;20380;-52
2023/01/16 02:57:58;;;;;;;4.70;0.80;;;3.50;99.90;;;;;;5070514;28;20399;-53
2023/01/16 03:00:24;;;;;;;5.50;0.60;;;5.20;99.90;;;;;;5070788;28;20522;-52
2023/01/16 03:02:50;;;;;;;5.20;0.50;;;3.50;99.90;;;;;;5070465;28;20383;-52
2023/01/16 03:05:15;;;;;;;4.15;0.55;;;5.50;99.90;;;;;;5069867;28;20388;-52
2023/01/16 03:07:41;;;;;;;4.50;0.50;;;3.40;99.90;;;;;;5069824;28;20376;-52
2023/01/16 03:10:31;;;;;;;4.70;0.80;;;3.30;99.90;;;;;;5069595;28;20436;-52
2023/01/16 03:13:08;;;;;;;9.07;0.52;;;3.40;99.90;;;;;;5069547;28;20424;-53
2023/01/16 03:16:02;;;;;;;3.90;0.40;;;5.20;99.90;;;;;;5068778;28;20759;-52
2023/01/16 03:18:52;;;;;;;8.05;0.60;;;3.40;99.90;;;;;;5070696;28;20918;-52
2023/01/16 03:21:57;;;;;;;8.20;0.82;;;3.50;99.90;;;;;;5069654;28;20379;-52
2023/01/16 03:25:06;;;;;;;4.20;0.50;;;3.50;99.90;;;;;;5069075;28;20423;-53
2023/01/16 03:27:39;;;;;;;4.90;0.80;;;3.50;99.90;;;;;;5070259;28;20429;-53
2023/01/16 03:30:20;;;;;;;4.40;0.50;;;3.50;99.90;;;;;;5069007;28;20955;-53
2023/01/16 03:32:50;;;;;;;3.90;0.40;;;3.60;99.90;;;;;;5061343;28;20403;-52
2023/01/16 03:35:23;;;;;;;4.70;0.60;;;3.70;99.90;;;;;;5049413;28;20370;-52
2023/01/16 03:37:52;;;;;;;4.63;0.50;;;3.80;99.90;;;;;;5050098;28;20382;-53
2023/01/16 03:40:33;;;;;;;8.25;0.80;;;5.90;99.90;;;;;;5048980;28;20425;-52
2023/01/16 03:43:15;;;;;;;4.57;0.68;;;4.00;99.90;;;;;;5049409;28;20497;-53
2023/01/16 03:45:49;;;;;;;7.30;0.80;;;3.80;99.90;;;;;;5049723;28;20394;-52
2023/01/16 03:48:43;;;;;;;8.38;0.63;;;5.00;99.90;;;;;;5049005;28;20380;-52
2023/01/16 03:51:15;;;;;;;4.50;0.60;;;3.90;99.90;;;;;;5038043;28;20394;-53
2023/01/16 03:53:47;;;;;;;4.20;0.50;;;3.90;99.90;;;;;;5049808;28;20886;-53
2023/01/16 03:56:15;;;;;;;4.10;0.60;;;5.00;99.90;;;;;;5049170;28;20392;-52
2023/01/16 03:58:43;;;;;;;7.00;0.80;;;3.80;99.90;;;;;;5049431;28;20389;-52
2023/01/16 04:01:35;;;;;;;7.63;0.57;;;5.40;99.90;;;;;;5048730;28;20381;-53
2023/01/16 04:04:18;;;;;;;3.80;0.30;;;5.10;99.90;;;;;;5045982;28;20492;-53
2023/01/16 04:06:47;;;;;;;4.70;0.50;;;4.40;99.90;;;;;;5047636;28;20519;-52
2023/01/16 04:09:34;;;;;;;10.10;0.70;;;5.00;99.90;;;;;;5046881;28;20397;-53
2023/01/16 04:12:01;;;;;;;5.30;0.60;;;3.50;99.90;;;;;;5048093;28;20388;-53
2023/01/16 04:14:29;;;;;;;5.03;0.40;;;3.50;99.90;;;;;;5049295;28;20382;-53
2023/01/16 04:16:55;;;;;;;6.78;0.60;;;4.40;99.90;;;;;;5049004;28;20394;-53
2023/01/16 04:19:22;;;;;;;5.40;0.60;;;3.50;99.90;;;;;;5048640;28;20800;-53
2023/01/16 04:21:47;;;;;;;5.05;0.50;;;3.40;99.90;;;;;;5049333;28;20412;-53
2023/01/16 04:24:14;;;;;;;4.40;0.80;;;4.20;99.90;;;;;;5047889;28;20506;-53
2023/01/16 04:26:40;;;;;;;5.90;0.70;;;4.70;99.90;;;;;;5048853;28;20528;-53
2023/01/16 04:29:06;;;;;;;7.20;0.70;;;3.40;99.90;;;;;;5048260;28;20917;-53
2023/01/16 04:31:31;;;;;;;4.10;0.50;;;3.40;99.90;;;;;;5049022;28;20882;-53
2023/01/16 04:33:57;;;;;;;4.10;0.75;;;4.90;99.90;;;;;;5048501;28;20450;-54
2023/01/16 04:36:22;;;;;;;4.20;0.60;;;3.40;99.90;;;;;;5048627;28;20377;-53
2023/01/16 04:38:48;;;;;;;7.95;1.20;;;3.40;99.90;;;;;;5048744;28;20401;-53
2023/01/16 04:41:35;;;;;;;4.50;0.73;;;3.30;99.90;;;;;;5047983;28;20392;-53
2023/01/16 04:44:02;;;;;;;6.95;0.70;;;3.30;99.90;;;;;;5047784;28;20835;-53
2023/01/16 04:46:28;;;;;;;4.88;1.10;;;3.20;99.90;;;;;;5048611;28;20584;-53
2023/01/16 04:48:53;;;;;;;5.40;1.10;;;5.00;99.90;;;;;;5048763;28;20561;-53
2023/01/16 04:51:19;;;;;;;4.53;0.60;;;3.00;99.90;;;;;;5047923;28;20435;-53
2023/01/16 04:53:45;;;;;;;5.32;1.17;;;2.90;99.90;;;;;;5048990;28;20397;-53
2023/01/16 04:56:10;;;;;;;5.50;1.00;;;2.90;99.90;;;;;;5047862;28;20772;-53
2023/01/16 04:58:36;;;;;;;5.20;0.93;;;2.80;99.90;;;;;;5048324;28;20389;-53
2023/01/16 05:01:01;;;;;;;5.27;1.10;;;2.80;99.90;;;;;;5054878;28;20376;-52
2023/01/16 05:03:27;;;;;;;6.38;0.95;;;2.80;99.90;;;;;;5066786;28;20977;-52
2023/01/16 05:05:53;;;;;;;6.20;1.10;;;4.40;99.90;;;;;;5066837;28;20432;-53
2023/01/16 05:08:19;;;;;;;5.90;1.00;;;4.40;99.90;;;;;;5067418;28;20407;-53
2023/01/16 05:10:45;;;;;;;6.30;0.85;;;2.70;99.90;;;;;;5065130;28;20423;-53
2023/01/16 05:13:11;;;;;;;6.50;0.82;;;4.70;99.90;;;;;;5067621;28;20422;-53
2023/01/16 05:15:37;;;;;;;5.43;1.20;;;2.60;99.90;;;;;;5068138;28;20458;-53
2023/01/16 05:18:03;;;;;;;4.60;0.90;;;2.70;99.90;;;;;;5067220;28;20387;-53
2023/01/16 05:20:28;;;;;;;5.20;1.17;;;2.50;1.00;;;;;;5066785;28;20433;-53
2023/01/16 05:22:54;;;;;;;4.85;1.00;;;2.50;1.00;;;;;;5067882;28;20444;-53
2023/01/16 05:25:21;;;;;;;4.47;0.80;;;2.50;1.00;;;;;;5066674;28;20455;-53
2023/01/16 05:27:50;;;;;;;6.63;1.00;;;2.40;1.00;;;;;;5067862;28;20521;-53
2023/01/16 05:30:16;;;;;;;4.90;1.10;;;2.40;1.00;;;;;;5059617;28;20401;-53
2023/01/16 05:32:43;;;;;;;7.72;1.08;;;2.40;92.60;;;;;;5061821;28;20706;-53
2023/01/16 05:35:09;;;;;;;4.93;1.00;;;2.30;99.90;;;;;;5067295;28;20372;-53
2023/01/16 05:37:35;;;;;;;4.90;0.80;;;2.30;99.90;;;;;;5067914;28;20372;-53
2023/01/16 05:40:01;;;;;;;4.50;1.00;;;2.30;99.90;;;;;;5058372;28;20576;-53
2023/01/16 05:42:27;;;;;;;6.20;0.90;;;2.40;99.90;;;;;;5055364;28;20488;-53
2023/01/16 05:44:53;;;;;;;4.70;1.00;;;2.40;99.90;;;;;;5052543;28;20973;-52
2023/01/16 05:47:19;;;;;;;7.70;0.80;;;2.50;1.00;;;;;;5063899;28;20977;-52
2023/01/16 05:49:45;;;;;;;4.28;0.70;;;2.50;1.00;;;;;;5058967;28;20472;-53
2023/01/16 05:52:11;;;;;;;4.05;0.70;;;2.60;1.00;;;;;;5047101;28;20476;-53
2023/01/16 05:54:37;;;;;;;5.00;1.10;;;2.60;1.00;;;;;;5051097;28;20400;-53
2023/01/16 05:57:02;;;;;;;5.15;0.80;;;2.60;1.00;;;;;;5058286;28;20429;-53
2023/01/16 05:59:28;;;;;;;4.80;0.70;;;3.70;1.00;;;;;;5067222;28;20392;-53
2023/01/16 06:01:53;;;;;;;4.68;0.77;;;2.70;1.00;;;;;;5067097;28;20400;-53
2023/01/16 06:04:19;;;;;;;4.70;0.70;;;2.80;99.90;;;;;;5067144;28;20429;-53
2023/01/16 06:06:45;;;;;;;4.57;0.70;;;2.80;99.90;;;;;;5064957;28;20460;-52
2023/01/16 06:09:11;;;;;;;7.40;1.00;;;3.10;1.00;;;;;;5057210;28;20391;-53
2023/01/16 06:11:37;;;;;;;4.97;0.80;;;2.60;1.00;;;;;;5067571;28;20745;-52
2023/01/16 06:14:04;;;;;;;4.38;0.70;;;2.70;1.00;;;;;;5067088;28;20383;-53
2023/01/16 06:16:31;;;;;;;8.38;1.00;;;2.70;1.00;;;;;;5067760;28;20436;-52
2023/01/16 06:18:58;;;;;;;6.07;0.90;;;2.70;1.00;;;;;;5067339;28;20504;-52
2023/01/16 06:21:25;;;;;;;4.25;0.70;;;2.80;1.00;;;;;;5062713;28;20444;-53
2023/01/16 06:23:50;;;;;;;4.53;0.75;;;2.80;1.00;;;;;;5061754;28;20420;-53
2023/01/16 06:26:16;;;;;;;4.50;1.00;;;2.80;1.00;;;;;;5067503;28;20500;-53
2023/01/16 06:28:41;;;;;;;6.47;1.70;;;3.90;1.00;;;;;;5071058;28;20456;-53
2023/01/16 06:31:07;;;;;;;8.80;2.13;;;2.90;99.90;;;;;;5070298;28;20383;-53
2023/01/16 06:33:34;;;;;;;4.93;1.00;;;3.00;99.90;;;;;;5071207;28;20380;-52
2023/01/16 06:35:59;;;;;;;5.60;1.20;;;2.90;99.90;;;;;;5070781;28;20884;-53
2023/01/16 06:38:25;;;;;;;6.30;1.20;;;2.80;99.90;;;;;;5071209;28;20384;-52
2023/01/16 06:40:56;;;;;;;5.40;1.10;;;3.00;99.90;;;;;;5071190;28;20411;-52
2023/01/16 06:43:31;;;;;;;5.30;1.02;;;3.10;99.90;;;;;;5069968;28;20424;-52
2023/01/16 06:45:56;;;;;;;5.30;0.75;;;3.20;99.90;;;;;;5069864;28;20463;-52
2023/01/16 06:48:22;;;;;;;7.80;1.30;;;3.20;99.90;;;;;;5070571;28;20479;-53
2023/01/16 06:50:48;;;;;;;4.63;1.00;;;3.20;99.90;;;;;;5070813;28;20737;-52
2023/01/16 06:53:14;;;;;;;5.57;1.27;;;5.40;99.90;;;;;;5070314;28;20403;-52
2023/01/16 06:55:41;;;;;;;7.07;1.30;;;3.20;99.90;;;;;;5069705;28;20884;-52
2023/01/16 06:58:08;;;;;;;5.10;1.20;;;3.30;99.90;;;;;;5069890;28;20412;-52
2023/01/16 07:00:34;;;;;;;5.40;1.23;;;3.40;99.90;;;;;;5070877;28;20442;-52
2023/01/16 07:03:00;;;;;;;5.28;1.00;;;3.30;99.90;;;;;;5070234;28;20428;-53
2023/01/16 07:05:27;;;;;;;4.30;0.70;;;3.40;99.90;;;;;;5060051;28;20403;-52
2023/01/16 07:07:53;;;;;;;5.20;1.20;;;3.40;99.90;;;;;;5070711;28;20398;-52
2023/01/16 07:10:20;;;;;;;5.97;1.30;;;3.90;99.90;;;;;;5069805;28;20399;-52
2023/01/16 07:12:46;;;;;;;5.47;1.10;;;3.40;99.90;;;;;;5070751;28;20383;-52
2023/01/16 07:23:33;;;;;;;4.50;0.80;;;3.50;99.90;;;;;;5069864;28;20954;-53
2023/01/16 07:26:01;;;;;;;6.40;0.95;;;3.50;99.90;;;;;;5069042;28;20408;-53
2023/01/16 07:28:28;;;;;;;6.03;0.90;;;3.50;99.90;;;;;;5069969;28;20744;-53
2023/01/16 07:30:55;;;;;;;5.30;0.90;;;3.60;99.90;;;;;;5070379;28;20451;-52
2023/01/16 07:33:20;;;;;;;5.38;1.50;;;5.50;99.90;;;;;;5069164;28;20380;-52
2023/01/16 07:35:46;;;;;;;7.77;1.60;;;3.70;99.90;;;;;;5070299;28;20475;-52
2023/01/16 07:38:12;;;;;;;6.30;1.10;;;4.90;99.90;;;;;;5069458;28;20376;-53
2023/01/16 07:40:37;;;;;;;6.35;1.35;;;3.80;99.90;;;;;;5069943;28;20376;-52
2023/01/16 07:43:03;;;;;;;7.57;1.50;;;4.30;99.90;;;;;;5067949;28;22767;-53
2023/01/16 07:45:29;;;;;;;7.45;1.20;;;3.90;99.90;;;;;;5070022;28;20705;-52
2023/01/16 07:47:54;;;;;;;6.78;1.50;;;4.30;99.90;;;;;;5069972;28;20380;-52
2023/01/16 07:50:20;;;;;;;7.60;1.50;;;4.00;91.40;;;;;;5069399;28;20810;-52
2023/01/16 07:52:46;;;;;;;5.75;1.30;;;4.10;60.10;;;;;;5069968;28;20693;-51
2023/01/16 07:55:13;;;;;;;5.40;1.42;;;4.10;48.30;;;;;;5069738;28;20754;-52
2023/01/16 07:57:39;;;;;;;6.37;1.40;;;4.40;32.50;;;;;;5070157;28;20379;-52
2023/01/16 08:00:12;;;;;;;5.15;1.20;;;5.50;30.00;;;;;;5068974;28;20427;-52
2023/01/16 08:02:39;;;;;;;5.40;1.10;;;3.90;24.50;;;;;;5069020;28;20387;-52
2023/01/16 08:05:05;;;;;;;5.80;1.60;;;3.90;22.30;;;;;;5068659;28;20419;-52
2023/01/16 08:07:31;;;;;;;5.00;1.40;;;3.90;22.30;;;;;;5069289;28;20418;-52
2023/01/16 08:09:57;;;;;;;4.55;0.93;;;5.40;26.50;;;;;;5069758;28;20387;-52
2023/01/16 08:12:23;;;;;;;6.88;1.50;;;5.60;22.50;;;;;;5068337;28;20427;-52
2023/01/16 08:14:49;;;;;;;6.32;1.40;;;3.90;17.70;;;;;;5069457;28;20422;-51
2023/01/16 08:17:15;;;;;;;4.83;1.20;;;4.90;15.90;;;;;;5068235;28;20387;-54
2023/01/16 08:19:40;;;;;;;5.83;1.00;;;3.90;14.20;;;;;;5069313;28;20417;-52
2023/01/16 08:22:06;;;;;;;6.28;1.55;;;4.00;14.80;;;;;;5068020;28;20437;-51
2023/01/16 08:24:32;;;;;;;5.68;1.50;;;4.00;10.10;;;;;;5069236;28;20416;-52
2023/01/16 08:26:57;;;;;;;7.40;1.90;;;4.00;8.60;;;;;;5068746;28;20473;-52
2023/01/16 08:29:23;;;;;;;7.10;1.40;;;4.10;21.40;;;;;;5068115;28;20499;-52
2023/01/16 08:31:49;;;;;;;6.07;1.30;;;6.10;5.50;;;;;;5068764;28;20734;-52
2023/01/16 08:34:15;;;;;;;6.03;1.52;;;4.40;1.00;;;;;;5068368;28;20384;-53
2023/01/16 08:36:41;;;;;;;6.55;0.98;;;4.60;1.00;;;;;;5068153;28;20387;-53
2023/01/16 08:39:09;;;;;;;5.27;1.30;;;4.60;1.00;;;;;;5067750;28;20449;-53
2023/01/16 08:52:36;;;;;;;6.70;1.00;;;4.60;1.00;;;;;;5068067;28;20418;-53
2023/01/16 08:55:03;;;;;;;5.60;1.10;;;6.30;1.00;;;;;;5068278;28;20822;-53
2023/01/16 08:57:29;;;;;;;5.05;0.80;;;4.50;1.00;;;;;;5068776;28;20511;-52
2023/01/16 08:59:56;;;;;;;6.60;1.05;;;4.50;1.00;;;;;;5068349;28;20462;-52
2023/01/16 09:02:23;;;;;;;5.20;0.90;;;4.50;1.00;;;;;;5067551;28;20447;-52
2023/01/16 09:04:49;;;;;;;4.50;0.70;;;4.50;1.00;;;;;;5068364;28;20449;-52
2023/01/16 09:07:15;;;;;;;5.05;0.80;;;4.60;1.00;;;;;;5067475;28;20655;-52
2023/01/16 09:09:41;;;;;;;5.70;0.70;;;4.60;1.00;;;;;;5068169;28;20376;-53
2023/01/16 09:14:55;;;;;;;6.70;1.20;;;5.60;1.00;;;;;;5068213;28;20413;-52
2023/01/16 09:17:22;;;;;;;4.85;0.77;;;4.70;1.00;;;;;;5067406;28;20375;-53
2023/01/16 09:19:47;;;;;;;5.60;0.70;;;4.80;1.00;;;;;;5068386;28;20383;-52
2023/01/16 09:22:13;;;;;;;4.60;0.70;;;6.60;1.00;;;;;;5065313;28;20832;-53
2023/01/16 09:24:39;;;;;;;4.85;0.70;;;4.70;1.00;;;;;;5067985;28;20412;-52
2023/01/16 09:27:05;;;;;;;4.70;0.77;;;4.70;1.00;;;;;;5066138;28;20436;-53
2023/01/16 09:29:31;;;;;;;5.32;0.60;;;4.70;1.00;;;;;;5067921;28;20384;-52
2023/01/16 09:31:58;;;;;;;6.28;1.00;;;5.50;1.00;;;;;;5066207;28;20394;-52
2023/01/16 09:34:24;;;;;;;4.70;0.60;;;4.70;1.00;;;;;;5067371;28;20437;-52
2023/01/16 09:36:50;;;;;;;4.13;0.50;;;4.70;1.00;;;;;;5067405;28;20401;-52
2023/01/16 09:39:15;;;;;;;4.50;0.67;;;4.80;1.00;;;;;;5067027;28;20848;-52
2023/01/16 09:45:10;;;;;;;4.40;0.70;;;4.90;1.00;;;;;;5066305;28;20415;-52
2023/01/16 09:47:37;;;;;;;6.65;0.80;;;4.90;1.00;;;;;;5066475;28;20387;-52
2023/01/16 09:50:14;;;;;;;4.60;0.90;;;5.10;1.00;;;;;;5067449;28;20388;-53
2023/01/16 09:58:35;;;;;;;5.28;0.70;;;5.20;1.00;;;;;;5066838;28;20406;-52
2023/01/16 10:01:22;;;;;;;4.40;0.60;;;6.60;1.00;;;;;;5070371;28;20383;-53
2023/01/16 10:03:48;;;;;;;4.90;0.70;;;5.30;1.00;;;;;;5071534;28;20415;-52
2023/01/16 10:06:55;;;;;;;6.20;0.70;;;5.40;1.00;;;;;;5070928;28;20449;-52
2023/01/16 10:09:47;;;;;;;4.90;0.60;;;5.70;1.00;;;;;;5070146;28;20423;-53
2023/01/16 10:12:14;;;;;;;4.40;0.65;;;5.30;1.00;;;;;;5070455;28;20387;-53
2023/01/16 10:15:04;;;;;;;4.53;0.60;;;5.50;1.00;;;;;;5070047;28;20834;-52
2023/01/16 10:17:37;;;;;;;4.20;0.70;;;5.50;1.00;;;;;;5069719;28;20793;-52
2023/01/16 10:20:21;;;;;;;4.22;0.55;;;5.40;1.00;;;;;;5069674;28;20603;-53
2023/01/16 10:23:00;;;;;;;4.20;0.50;;;5.50;1.00;;;;;;5071068;28;20486;-51
2023/01/16 10:25:44;;;;;;;5.57;0.80;;;5.50;1.00;;;;;;5070886;28;20429;-52
2023/01/16 10:28:25;;;;;;;6.80;0.60;;;5.50;1.00;;;;;;5069452;28;20410;-52
2023/01/16 10:31:01;;;;;;;4.22;0.60;;;5.50;1.00;;;;;;5071620;28;20394;-52
2023/01/16 10:33:30;;;;;;;5.50;0.70;;;5.60;1.00;;;;;;5070568;28;20478;-53
2023/01/16 10:35:58;;;;;;;4.25;0.50;;;5.50;1.00;;;;;;5071468;28;20376;-52
2023/01/16 10:38:55;;;;;;;6.00;0.80;;;5.50;1.00;;;;;;5071056;28;20372;-53
2023/01/16 10:50:02;;;;;;;4.25;0.60;;;5.70;1.00;;;;;;5071691;28;20919;-53
2023/01/16 10:52:28;;;;;;;6.40;0.60;;;5.80;1.00;;;;;;5071120;28;20384;-53
2023/01/16 10:54:57;;;;;;;4.20;0.40;;;5.80;1.00;;;;;;5071613;28;20380;-53
2023/01/16 10:57:22;;;;;;;6.35;0.55;;;5.90;1.00;;;;;;5068950;28;20392;-53
2023/01/16 10:59:56;;;;;;;5.60;0.60;;;5.80;1.00;;;;;;5070816;28;20384;-52
2023/01/16 11:02:40;;;;;;;4.68;0.80;;;7.20;1.00;;;;;;5070380;28;20435;-52
2023/01/16 11:05:34;;;;;;;4.55;0.50;;;5.90;1.00;;;;;;5070778;28;20603;-52
2023/01/16 11:08:07;;;;;;;5.90;1.70;;;6.00;1.00;;;;;;5070994;28;20396;-53
2023/01/16 11:10:33;;;;;;;4.63;0.45;;;6.10;1.00;;;;;;5071215;28;20490;-52
2023/01/16 11:19:18;;;;;;;4.90;0.70;;;5.80;1.00;;;;;;5070644;28;20923;-52
2023/01/16 11:21:53;;;;;;;5.07;0.90;;;6.20;1.00;;;;;;5069472;28;20391;-52
2023/01/16 11:24:22;;;;;;;4.55;0.75;;;6.30;1.00;;;;;;5070551;28;20415;-52
2023/01/16 11:26:53;;;;;;;4.00;0.35;;;6.30;1.00;;;;;;5070700;28;20380;-53
2023/01/16 11:29:23;;;;;;;4.40;0.70;;;6.40;1.00;;;;;;5068662;28;20392;-52
2023/01/16 11:31:56;;;;;;;5.03;0.47;;;6.40;1.00;;;;;;5070894;28;20458;-53
2023/01/16 11:34:27;;;;;;;4.20;0.50;;;7.10;1.00;;;;;;5068725;28;20680;-52
2023/01/16 11:36:56;;;;;;;4.10;0.40;;;6.50;1.00;;;;;;5070672;28;20387;-52
2023/01/16 11:39:24;;;;;;;4.45;0.50;;;6.60;1.00;;;;;;5069990;28;20671;-52
2023/01/16 11:41:53;;;;;;;4.47;0.60;;;6.60;1.00;;;;;;5070344;28;20472;-53
2023/01/16 11:47:12;;;;;;;4.50;0.60;;;8.40;1.00;;;;;;5069749;28;20443;-54
2023/01/16 11:49:45;;;;;;;6.10;0.40;;;6.90;1.00;;;;;;5070221;28;20379;-53
2023/01/16 11:52:14;;;;;;;5.38;0.50;;;6.90;1.00;;;;;;5069316;28;20391;-53
2023/01/16 11:54:40;;;;;;;4.90;0.90;;;6.90;1.00;;;;;;5070191;28;20399;-53
2023/01/16 11:57:25;;;;;;;5.78;1.40;;;7.00;1.00;;;;;;5069582;28;20779;-53
2023/01/16 12:00:04;;;;;;;5.55;0.82;;;6.80;1.00;;;;;;5070154;28;20387;-53
2023/01/16 12:02:57;;;;;;;4.13;0.50;;;6.90;1.00;;;;;;5069965;28;20396;-53
2023/01/16 12:05:59;;;;;;;4.70;1.00;;;6.80;1.00;;;;;;5069333;28;20384;-53
2023/01/16 12:08:57;;;;;;;5.55;0.43;;;6.80;1.00;;;;;;5068894;28;20461;-52
2023/01/16 12:11:34;;;;;;;4.40;0.50;;;6.90;1.00;;;;;;5068937;28;20900;-53
2023/01/16 12:14:20;;;;;;;5.60;1.55;;;6.90;1.00;;;;;;5069549;28;20401;-53
2023/01/16 12:17:07;;;;;;;5.00;1.00;;;7.00;1.00;;;;;;5069215;28;20539;-53
2023/01/16 12:20:02;;;;;;;6.57;1.48;;;6.90;1.00;;;;;;5069508;28;20437;-53
2023/01/16 12:22:34;;;;;;;6.55;1.77;;;6.80;1.00;;;;;;5068439;28;20438;-53
2023/01/16 12:25:39;;;;;;;4.97;1.00;;;6.90;1.00;;;;;;5066597;28;20489;-52
2023/01/16 12:28:23;;;;;;;5.90;1.17;;;7.00;1.00;;;;;;5068620;28;20416;-53
2023/01/16 12:33:54;;;;;;;5.05;0.70;;;7.10;1.00;;;;;;5069013;28;21098;-52
2023/01/16 12:36:51;;;;;;;6.10;1.52;;;6.90;1.00;;;;;;5068546;28;20398;-53
2023/01/16 12:39:28;;;;;;;6.13;1.55;;;7.00;1.00;;;;;;5068736;28;20392;-52
2023/01/16 12:45:27;;;;;;;4.47;0.70;;;9.00;1.00;;;;;;5068842;28;20502;-53
2023/01/16 12:48:21;;;;;;;5.20;0.60;;;7.20;1.00;;;;;;5068988;28;20384;-53
2023/01/16 12:51:13;;;;;;;4.07;0.40;;;7.30;1.00;;;;;;5068792;28;20427;-53
2023/01/16 12:54:16;;;;;;;4.53;0.43;;;7.50;1.00;;;;;;5067870;28;20423;-53
2023/01/16 12:57:23;;;;;;;4.50;0.50;;;7.60;1.00;;;;;;5069094;28;20391;-53
2023/01/16 12:59:51;;;;;;;4.07;0.40;;;7.60;1.00;;;;;;5068511;28;20459;-53
2023/01/16 13:02:23;;;;;;;4.05;0.30;;;8.70;1.00;;;;;;5067622;28;20847;-53
2023/01/16 13:04:58;;;;;;;4.10;0.30;;;8.20;1.00;;;;;;5068494;28;20412;-53
2023/01/16 13:07:29;;;;;;;4.30;0.30;;;7.60;1.00;;;;;;5068113;28;20679;-52
2023/01/16 13:15:45;;;;;;;4.10;0.30;;;7.50;1.00;;;;;;5068383;28;20454;-53
2023/01/16 13:18:20;;;;;;;4.00;0.30;;;9.50;1.00;;;;;;5066136;28;20881;-53
2023/01/16 13:20:50;;;;;;;4.60;0.30;;;7.40;1.00;;;;;;5068463;28;20383;-53
2023/01/16 13:23:22;;;;;;;4.40;0.50;;;7.50;1.00;;;;;;5067489;28;20400;-52
2023/01/16 13:25:56;;;;;;;4.00;0.30;;;7.70;1.00;;;;;;5068884;28;20448;-54
2023/01/16 13:28:34;;;;;;;6.80;0.30;;;8.90;1.00;;;;;;5066131;28;20395;-52
2023/01/16 13:31:04;;;;;;;4.70;0.50;;;7.60;1.00;;;;;;5068044;28;20422;-52
2023/01/16 13:33:33;;;;;;;5.30;0.50;;;7.60;1.00;;;;;;5067570;28;21250;-52
2023/01/16 13:36:28;;;;;;;4.50;0.30;;;7.70;1.00;;;;;;5068238;28;20418;-51
2023/01/16 13:39:22;;;;;;;4.47;0.30;;;7.90;1.00;;;;;;5066484;28;20750;-52
2023/01/16 13:41:53;;;;;;;4.10;0.28;;;8.10;1.00;;;;;;5066707;28;20400;-52
2023/01/16 13:47:19;;;;;;;4.20;0.40;;;8.60;1.00;;;;;;5067526;28;20433;-52
2023/01/16 13:49:51;;;;;;;4.40;0.30;;;8.70;1.00;;;;;;5068146;28;20384;-52
2023/01/16 13:52:26;;;;;;;4.18;0.40;;;8.50;1.00;;;;;;5067611;28;20383;-53
2023/01/16 13:54:58;;;;;;;4.28;0.30;;;8.30;1.00;;;;;;5067013;28;20503;-53
2023/01/16 13:57:27;;;;;;;4.00;0.30;;;8.20;1.00;;;;;;5067617;28;20836;-53
2023/01/16 13:59:58;;;;;;;4.10;0.30;;;8.40;1.00;;;;;;5066638;28;20375;-53
2023/01/16 14:02:36;;;;;;;4.00;0.30;;;8.20;1.00;;;;;;5067889;28;20494;-53
2023/01/16 14:05:08;;;;;;;4.20;0.30;;;8.20;1.00;;;;;;5068492;28;20408;-53
2023/01/16 14:10:55;;;;;;;4.20;0.40;;;8.00;1.00;;;;;;5068196;28;20383;-53
2023/01/16 14:13:26;;;;;;;4.40;0.50;;;7.80;1.00;;;;;;5067353;28;20387;-53
2023/01/16 14:19:02;;;;;;;4.00;0.30;;;7.60;1.00;;;;;;5068242;28;20387;-53
2023/01/16 14:21:37;;;;;;;5.83;0.33;;;7.60;1.00;;;;;;5067394;28;20583;-53
2023/01/16 14:24:09;;;;;;;4.30;0.40;;;7.60;1.00;;;;;;5067889;28;20435;-52
2023/01/16 14:26:47;;;;;;;3.95;0.22;;;7.70;1.00;;;;;;5067898;28;20449;-53
2023/01/16 14:29:32;;;;;;;4.00;0.30;;;7.60;1.00;;;;;;5066590;28;20849;-53
2023/01/16 14:32:05;;;;;;;4.72;0.30;;;7.50;1.00;;;;;;5068001;28;20376;-53
2023/01/16 14:34:44;;;;;;;3.90;0.30;;;7.40;1.00;;;;;;5067192;28;20395;-53
2023/01/16 14:37:16;;;;;;;4.38;0.30;;;7.40;1.00;;;;;;5065618;28;20472;-54
2023/01/16 14:39:51;;;;;;;4.00;0.30;;;7.20;1.00;;;;;;5067931;28;20384;-53